createdAt,value
2022-10-21T00:00:19.721Z,28
2022-10-21T00:01:19.748Z,28
2022-10-21T00:02:19.724Z,28
2022-10-21T00:03:19.674Z,30
2022-10-21T00:04:19.742Z,28
2022-10-21T00:05:19.804Z,30
2022-10-21T00:06:19.680Z,28
2022-10-21T00:07:19.653Z,27
2022-10-21T00:08:19.626Z,24
2022-10-21T00:09:19.783Z,27
2022-10-21T00:10:19.777Z,26
2022-10-21T00:11:19.635Z,26
2022-10-21T00:12:19.688Z,26
2022-10-21T00:13:19.699Z,22
2022-10-21T00:14:20.021Z,22
2022-10-21T00:15:19.709Z,19
2022-10-21T00:16:19.705Z,23
2022-10-21T00:17:19.711Z,22
2022-10-21T00:18:19.726Z,24
2022-10-21T00:19:19.787Z,23
2022-10-21T00:20:19.801Z,27
2022-10-21T00:21:19.679Z,25
2022-10-21T00:22:19.666Z,23
2022-10-21T00:23:19.629Z,24
2022-10-21T00:24:19.647Z,24
2022-10-21T00:25:19.785Z,24
2022-10-21T00:26:19.673Z,27
2022-10-21T00:27:19.718Z,22
2022-10-21T00:28:19.647Z,22
2022-10-21T00:29:19.709Z,20
2022-10-21T00:30:19.722Z,21
2022-10-21T00:31:19.704Z,24
2022-10-21T00:32:19.699Z,23
2022-10-21T00:33:19.716Z,25
2022-10-21T00:34:19.737Z,23
2022-10-21T00:35:19.675Z,20
2022-10-21T00:36:19.757Z,21
2022-10-21T00:37:19.699Z,21
2022-10-21T00:38:19.872Z,20
2022-10-21T00:39:19.837Z,15
2022-10-21T00:40:19.751Z,17
2022-10-21T00:41:19.768Z,19
2022-10-21T00:42:19.828Z,20
2022-10-21T00:43:19.890Z,15
2022-10-21T00:44:19.884Z,16
2022-10-21T00:45:19.862Z,16
2022-10-21T00:46:19.744Z,18
2022-10-21T00:47:19.705Z,15
2022-10-21T00:48:19.697Z,17
2022-10-21T00:49:19.897Z,15
2022-10-21T00:50:19.764Z,17
2022-10-21T00:51:19.778Z,16
2022-10-21T00:52:19.646Z,16
2022-10-21T00:53:19.676Z,17
2022-10-21T00:54:19.809Z,18
2022-10-21T00:55:19.694Z,21
2022-10-21T00:56:19.769Z,16
2022-10-21T00:57:19.765Z,19
2022-10-21T00:58:19.679Z,20
2022-10-21T00:59:19.698Z,17
2022-10-21T01:00:19.690Z,20
2022-10-21T01:01:21.559Z,15
2022-10-21T01:02:19.676Z,17
2022-10-21T01:03:19.710Z,18
2022-10-21T01:04:19.732Z,18
2022-10-21T01:05:19.711Z,20
2022-10-21T01:06:19.631Z,18
2022-10-21T01:07:19.784Z,20
2022-10-21T01:08:19.735Z,19
2022-10-21T01:09:19.672Z,19
2022-10-21T01:10:19.679Z,20
2022-10-21T01:11:19.794Z,20
2022-10-21T01:12:19.764Z,19
2022-10-21T01:13:19.698Z,21
2022-10-21T01:14:19.792Z,20
2022-10-21T01:15:19.696Z,18
2022-10-21T01:16:19.689Z,18
2022-10-21T01:17:26.508Z,20
2022-10-21T01:18:19.643Z,20
2022-10-21T01:19:19.727Z,18
2022-10-21T01:20:19.705Z,19
2022-10-21T01:21:19.724Z,19
2022-10-21T01:22:19.786Z,16
2022-10-21T01:23:19.784Z,18
2022-10-21T01:24:19.662Z,18
2022-10-21T01:25:19.639Z,19
2022-10-21T01:26:19.762Z,15
2022-10-21T01:27:19.795Z,16
2022-10-21T01:28:19.642Z,15
2022-10-21T01:29:19.733Z,17
2022-10-21T01:30:19.673Z,18
2022-10-21T01:31:19.718Z,17
2022-10-21T01:32:19.636Z,14
2022-10-21T01:33:19.631Z,19
2022-10-21T01:34:19.715Z,15
2022-10-21T01:35:19.721Z,17
2022-10-21T01:36:19.714Z,19
2022-10-21T01:37:19.689Z,18
2022-10-21T01:38:19.766Z,20
2022-10-21T01:39:19.704Z,20
2022-10-21T01:40:19.727Z,19
2022-10-21T01:41:19.630Z,18
2022-10-21T01:42:19.748Z,16
2022-10-21T01:43:19.753Z,19
2022-10-21T01:44:19.651Z,18
2022-10-21T01:45:19.658Z,17
2022-10-21T01:46:19.685Z,14
2022-10-21T01:47:19.714Z,19
2022-10-21T01:48:19.792Z,20
2022-10-21T01:49:19.733Z,19
2022-10-21T01:50:19.722Z,18
2022-10-21T01:51:19.782Z,19
2022-10-21T01:52:19.636Z,21
2022-10-21T01:53:19.713Z,20
2022-10-21T01:54:19.730Z,19
2022-10-21T01:55:19.773Z,17
2022-10-21T01:56:19.744Z,19
2022-10-21T01:57:19.651Z,19
2022-10-21T01:58:19.792Z,21
2022-10-21T01:59:19.822Z,15
2022-10-21T02:00:19.753Z,16
2022-10-21T02:01:19.719Z,17
2022-10-21T02:02:19.661Z,18
2022-10-21T02:03:19.650Z,18
2022-10-21T02:04:19.656Z,17
2022-10-21T02:05:19.669Z,16
2022-10-21T02:06:19.689Z,16
2022-10-21T02:07:19.651Z,16
2022-10-21T02:08:19.649Z,15
2022-10-21T02:09:19.698Z,19
2022-10-21T02:10:19.687Z,15
2022-10-21T02:11:19.693Z,13
2022-10-21T02:12:19.658Z,14
2022-10-21T02:13:19.657Z,17
2022-10-21T02:14:19.728Z,15
2022-10-21T02:15:19.691Z,16
2022-10-21T02:16:19.651Z,14
2022-10-21T02:17:19.659Z,18
2022-10-21T02:18:19.652Z,12
2022-10-21T02:19:19.727Z,13
2022-10-21T02:20:19.678Z,12
2022-10-21T02:21:19.692Z,15
2022-10-21T02:22:19.696Z,16
2022-10-21T02:23:19.663Z,12
2022-10-21T02:24:19.757Z,12
2022-10-21T02:25:19.656Z,12
2022-10-21T02:26:19.643Z,13
2022-10-21T02:27:19.695Z,12
2022-10-21T02:28:19.671Z,12
2022-10-21T02:29:19.692Z,12
2022-10-21T02:30:19.693Z,13
2022-10-21T02:31:19.658Z,13
2022-10-21T02:32:19.646Z,11
2022-10-21T02:33:19.653Z,15
2022-10-21T02:34:19.652Z,9
2022-10-21T02:35:19.683Z,10
2022-10-21T02:36:19.651Z,10
2022-10-21T02:37:19.696Z,11
2022-10-21T02:38:19.747Z,10
2022-10-21T02:39:19.756Z,13
2022-10-21T02:40:19.689Z,10
2022-10-21T02:41:19.721Z,16
2022-10-21T02:42:19.921Z,10
2022-10-21T02:43:19.948Z,12
2022-10-21T02:44:19.915Z,14
2022-10-21T02:45:19.713Z,11
2022-10-21T02:46:19.768Z,11
2022-10-21T02:47:19.699Z,9
2022-10-21T02:48:19.674Z,10
2022-10-21T02:49:19.669Z,11
2022-10-21T02:50:19.718Z,10
2022-10-21T02:51:19.724Z,11
2022-10-21T02:52:19.702Z,12
2022-10-21T02:53:19.847Z,10
2022-10-21T02:54:19.681Z,9
2022-10-21T02:55:19.812Z,9
2022-10-21T02:56:19.808Z,11
2022-10-21T02:57:19.718Z,8
2022-10-21T02:58:19.787Z,10
2022-10-21T02:59:19.797Z,7
2022-10-21T03:00:19.718Z,10
2022-10-21T03:01:19.861Z,9
2022-10-21T03:02:19.733Z,12
2022-10-21T03:03:19.656Z,9
2022-10-21T03:04:19.747Z,11
2022-10-21T03:05:19.798Z,11
2022-10-21T03:06:19.677Z,9
2022-10-21T03:07:19.719Z,8
2022-10-21T03:08:19.802Z,8
2022-10-21T03:09:19.705Z,9
2022-10-21T03:10:19.731Z,8
2022-10-21T03:11:19.726Z,12
2022-10-21T03:12:19.714Z,7
2022-10-21T03:13:19.724Z,8
2022-10-21T03:14:19.722Z,9
2022-10-21T03:15:19.755Z,8
2022-10-21T03:16:19.700Z,7
2022-10-21T03:17:21.649Z,7
2022-10-21T03:18:19.761Z,9
2022-10-21T03:19:19.766Z,8
2022-10-21T03:20:19.679Z,9
2022-10-21T03:21:19.781Z,7
2022-10-21T03:22:19.680Z,7
2022-10-21T03:23:19.809Z,9
2022-10-21T03:24:28.412Z,8
2022-10-21T03:25:19.757Z,9
2022-10-21T03:26:19.703Z,8
2022-10-21T03:27:19.681Z,11
2022-10-21T03:28:19.724Z,10
2022-10-21T03:29:19.727Z,9
2022-10-21T03:30:19.675Z,8
2022-10-21T03:31:19.774Z,8
2022-10-21T03:32:19.749Z,7
2022-10-21T03:33:19.770Z,7
2022-10-21T03:34:19.787Z,8
2022-10-21T03:35:19.707Z,10
2022-10-21T03:36:19.774Z,11
2022-10-21T03:37:19.793Z,8
2022-10-21T03:38:19.712Z,10
2022-10-21T03:39:19.824Z,9
2022-10-21T03:40:19.723Z,8
2022-10-21T03:41:19.726Z,9
2022-10-21T03:42:19.763Z,10
2022-10-21T03:43:19.747Z,8
2022-10-21T03:44:19.646Z,8
2022-10-21T03:45:19.733Z,6
2022-10-21T03:46:19.730Z,6
2022-10-21T03:47:19.773Z,9
2022-10-21T03:48:19.747Z,9
2022-10-21T03:49:21.456Z,9
2022-10-21T03:50:23.776Z,11
2022-10-21T03:51:19.803Z,9
2022-10-21T03:52:19.670Z,9
2022-10-21T03:53:38.262Z,10
2022-10-21T03:54:19.699Z,7
2022-10-21T03:55:19.773Z,9
2022-10-21T03:56:19.752Z,8
2022-10-21T03:57:19.738Z,10
2022-10-21T03:58:19.661Z,10
2022-10-21T03:59:19.718Z,8
2022-10-21T04:00:19.753Z,7
2022-10-21T04:01:19.777Z,8
2022-10-21T04:02:19.754Z,8
2022-10-21T04:03:19.804Z,8
2022-10-21T04:04:19.678Z,8
2022-10-21T04:05:19.752Z,8
2022-10-21T04:06:19.809Z,6
2022-10-21T04:07:19.685Z,7
2022-10-21T04:08:19.772Z,7
2022-10-21T04:09:19.766Z,8
2022-10-21T04:10:19.735Z,8
2022-10-21T04:11:19.816Z,8
2022-10-21T04:12:19.692Z,9
2022-10-21T04:13:19.741Z,7
2022-10-21T04:14:19.656Z,7
2022-10-21T04:15:19.710Z,8
2022-10-21T04:16:19.742Z,7
2022-10-21T04:17:19.651Z,7
2022-10-21T04:18:19.774Z,9
2022-10-21T04:19:19.785Z,10
2022-10-21T04:20:19.747Z,7
2022-10-21T04:21:19.877Z,8
2022-10-21T04:22:19.800Z,7
2022-10-21T04:23:19.650Z,10
2022-10-21T04:24:19.649Z,6
2022-10-21T04:25:19.677Z,8
2022-10-21T04:26:19.811Z,8
2022-10-21T04:27:19.691Z,7
2022-10-21T04:28:19.699Z,7
2022-10-21T04:29:19.665Z,6
2022-10-21T04:30:19.670Z,7
2022-10-21T04:31:19.719Z,6
2022-10-21T04:32:19.673Z,7
2022-10-21T04:33:19.757Z,7
2022-10-21T04:34:19.742Z,6
2022-10-21T04:35:19.721Z,5
2022-10-21T04:36:19.765Z,5
2022-10-21T04:37:19.697Z,7
2022-10-21T04:38:19.639Z,5
2022-10-21T04:39:19.699Z,7
2022-10-21T04:40:19.655Z,7
2022-10-21T04:41:19.775Z,7
2022-10-21T04:42:19.796Z,8
2022-10-21T04:43:19.689Z,5
2022-10-21T04:44:19.680Z,7
2022-10-21T04:45:19.713Z,6
2022-10-21T04:46:19.698Z,7
2022-10-21T04:47:19.710Z,9
2022-10-21T04:48:19.670Z,9
2022-10-21T04:49:19.709Z,8
2022-10-21T04:50:19.762Z,6
2022-10-21T04:51:19.782Z,5
2022-10-21T04:52:19.652Z,6
2022-10-21T04:53:19.678Z,5
2022-10-21T04:54:19.665Z,8
2022-10-21T04:55:19.667Z,6
2022-10-21T04:56:19.708Z,6
2022-10-21T04:57:19.785Z,9
2022-10-21T04:58:21.889Z,6
2022-10-21T04:59:19.703Z,6
2022-10-21T05:00:19.662Z,7
2022-10-21T05:01:19.897Z,7
2022-10-21T05:02:22.988Z,9
2022-10-21T05:03:19.666Z,7
2022-10-21T05:04:19.727Z,8
2022-10-21T05:05:19.704Z,6
2022-10-21T05:06:19.685Z,6
2022-10-21T05:07:19.727Z,8
2022-10-21T05:08:19.663Z,5
2022-10-21T05:09:19.668Z,7
2022-10-21T05:10:19.686Z,7
2022-10-21T05:11:19.717Z,8
2022-10-21T05:12:19.743Z,6
2022-10-21T05:13:19.708Z,5
2022-10-21T05:14:22.548Z,6
2022-10-21T05:15:19.728Z,6
2022-10-21T05:16:19.675Z,6
2022-10-21T05:17:19.693Z,6
2022-10-21T05:18:19.717Z,8
2022-10-21T05:19:19.662Z,6
2022-10-21T05:20:19.721Z,8
2022-10-21T05:21:19.719Z,7
2022-10-21T05:22:19.645Z,7
2022-10-21T05:23:19.677Z,6
2022-10-21T05:24:19.711Z,8
2022-10-21T05:25:19.669Z,9
2022-10-21T05:26:19.726Z,6
2022-10-21T05:27:19.654Z,11
2022-10-21T05:28:19.732Z,8
2022-10-21T05:29:19.742Z,7
2022-10-21T05:30:19.701Z,9
2022-10-21T05:31:19.710Z,7
2022-10-21T05:32:19.663Z,7
2022-10-21T05:33:19.652Z,7
2022-10-21T05:34:19.662Z,9
2022-10-21T05:35:19.648Z,8
2022-10-21T05:36:21.897Z,9
2022-10-21T05:37:19.658Z,7
2022-10-21T05:38:19.676Z,6
2022-10-21T05:39:19.715Z,8
2022-10-21T05:40:19.659Z,8
2022-10-21T05:41:19.715Z,7
2022-10-21T05:42:19.684Z,6
2022-10-21T05:43:19.711Z,6
2022-10-21T05:44:19.728Z,6
2022-10-21T05:45:19.665Z,10
2022-10-21T05:46:19.710Z,8
2022-10-21T05:47:19.708Z,8
2022-10-21T05:48:19.683Z,7
2022-10-21T05:49:19.662Z,8
2022-10-21T05:50:19.677Z,9
2022-10-21T05:51:19.747Z,7
2022-10-21T05:52:19.698Z,10
2022-10-21T05:53:19.665Z,7
2022-10-21T05:54:19.709Z,7
2022-10-21T05:55:19.674Z,7
2022-10-21T05:56:19.683Z,9
2022-10-21T05:57:19.664Z,9
2022-10-21T05:58:19.659Z,7
2022-10-21T05:59:19.742Z,7
2022-10-21T06:00:19.703Z,8
2022-10-21T06:01:19.832Z,9
2022-10-21T06:02:19.658Z,7
2022-10-21T06:03:19.699Z,8
2022-10-21T06:04:19.663Z,7
2022-10-21T06:05:19.738Z,7
2022-10-21T06:06:19.740Z,8
2022-10-21T06:07:19.716Z,8
2022-10-21T06:08:19.709Z,9
2022-10-21T06:09:19.674Z,7
2022-10-21T06:10:19.708Z,7
2022-10-21T06:11:19.676Z,7
2022-10-21T06:12:19.683Z,8
2022-10-21T06:13:19.654Z,8
2022-10-21T06:14:19.717Z,6
2022-10-21T06:15:19.731Z,9
2022-10-21T06:16:19.770Z,8
2022-10-21T06:17:19.718Z,9
2022-10-21T06:18:19.667Z,10
2022-10-21T06:19:19.711Z,7
2022-10-21T06:20:19.679Z,10
2022-10-21T06:21:19.702Z,8
2022-10-21T06:22:19.708Z,7
2022-10-21T06:23:19.752Z,9
2022-10-21T06:24:19.675Z,6
2022-10-21T06:25:19.725Z,6
2022-10-21T06:26:19.715Z,8
2022-10-21T06:27:19.696Z,8
2022-10-21T06:28:19.662Z,9
2022-10-21T06:29:19.704Z,7
2022-10-21T06:30:19.788Z,7
2022-10-21T06:31:19.726Z,5
2022-10-21T06:32:19.710Z,5
2022-10-21T06:33:24.562Z,6
2022-10-21T06:34:19.714Z,7
2022-10-21T06:35:19.660Z,8
2022-10-21T06:36:19.761Z,8
2022-10-21T06:37:19.770Z,6
2022-10-21T06:38:19.773Z,9
2022-10-21T06:39:19.763Z,11
2022-10-21T06:40:19.729Z,8
2022-10-21T06:41:19.832Z,6
2022-10-21T06:42:19.855Z,6
2022-10-21T06:43:19.833Z,7
2022-10-21T06:44:19.868Z,8
2022-10-21T06:45:20.120Z,7
2022-10-21T06:46:20.157Z,5
2022-10-21T06:47:19.831Z,7
2022-10-21T06:48:19.711Z,7
2022-10-21T06:49:20.101Z,9
2022-10-21T06:50:19.708Z,6
2022-10-21T06:51:19.758Z,7
2022-10-21T06:52:19.795Z,5
2022-10-21T06:53:19.707Z,7
2022-10-21T06:54:20.216Z,8
2022-10-21T06:55:19.652Z,8
2022-10-21T06:56:19.742Z,7
2022-10-21T06:57:19.740Z,5
2022-10-21T06:58:19.985Z,7
2022-10-21T06:59:19.723Z,6
2022-10-21T07:00:19.796Z,9
2022-10-21T07:01:33.757Z,6
2022-10-21T07:02:19.717Z,8
2022-10-21T07:03:19.769Z,8
2022-10-21T07:04:19.677Z,7
2022-10-21T07:05:19.674Z,6
2022-10-21T07:06:19.847Z,8
2022-10-21T07:07:19.688Z,5
2022-10-21T07:08:22.419Z,7
2022-10-21T07:09:19.867Z,6
2022-10-21T07:10:19.820Z,7
2022-10-21T07:11:19.778Z,9
2022-10-21T07:12:19.695Z,6
2022-10-21T07:13:24.843Z,6
2022-10-21T07:14:19.677Z,8
2022-10-21T07:15:19.714Z,6
2022-10-21T07:16:19.695Z,5
2022-10-21T07:17:19.826Z,7
2022-10-21T07:18:19.844Z,7
2022-10-21T07:19:19.808Z,6
2022-10-21T07:20:19.769Z,6
2022-10-21T07:21:19.709Z,10
2022-10-21T07:22:19.722Z,10
2022-10-21T07:23:19.706Z,8
2022-10-21T07:24:22.563Z,9
2022-10-21T07:25:20.078Z,7
2022-10-21T07:26:19.859Z,11
2022-10-21T07:27:19.743Z,9
2022-10-21T07:28:19.722Z,8
2022-10-21T07:29:19.746Z,8
2022-10-21T07:30:19.711Z,8
2022-10-21T07:31:19.793Z,9
2022-10-21T07:32:19.754Z,7
2022-10-21T07:33:19.767Z,7
2022-10-21T07:34:19.764Z,8
2022-10-21T07:35:19.716Z,8
2022-10-21T07:36:19.724Z,7
2022-10-21T07:37:19.818Z,9
2022-10-21T07:38:20.981Z,7
2022-10-21T07:39:19.697Z,7
2022-10-21T07:40:19.798Z,7
2022-10-21T07:41:19.822Z,7
2022-10-21T07:42:19.715Z,8
2022-10-21T07:43:19.682Z,9
2022-10-21T07:44:19.675Z,8
2022-10-21T07:45:19.688Z,8
2022-10-21T07:46:19.706Z,9
2022-10-21T07:47:19.796Z,11
2022-10-21T07:48:19.755Z,8
2022-10-21T07:49:19.717Z,10
2022-10-21T07:50:19.829Z,9
2022-10-21T07:51:19.830Z,11
2022-10-21T07:52:19.788Z,11
2022-10-21T07:53:20.222Z,9
2022-10-21T07:54:19.749Z,9
2022-10-21T07:55:19.739Z,10
2022-10-21T07:56:19.833Z,11
2022-10-21T07:57:19.710Z,12
2022-10-21T07:58:19.702Z,12
2022-10-21T07:59:19.728Z,8
2022-10-21T08:00:19.735Z,12
2022-10-21T08:01:19.900Z,13
2022-10-21T08:02:19.702Z,17
2022-10-21T08:03:19.800Z,14
2022-10-21T08:04:19.732Z,12
2022-10-21T08:05:19.761Z,11
2022-10-21T08:06:19.706Z,12
2022-10-21T08:07:19.771Z,14
2022-10-21T08:08:19.774Z,17
2022-10-21T08:09:19.850Z,16
2022-10-21T08:10:19.713Z,12
2022-10-21T08:11:19.743Z,15
2022-10-21T08:12:19.806Z,10
2022-10-21T08:13:19.673Z,9
2022-10-21T08:14:19.935Z,11
2022-10-21T08:15:19.715Z,15
2022-10-21T08:16:19.756Z,13
2022-10-21T08:17:19.737Z,14
2022-10-21T08:18:19.788Z,14
2022-10-21T08:19:19.742Z,14
2022-10-21T08:20:19.755Z,14
2022-10-21T08:21:19.858Z,10
2022-10-21T08:22:19.770Z,10
2022-10-21T08:23:19.801Z,10
2022-10-21T08:24:19.682Z,11
2022-10-21T08:25:19.681Z,9
2022-10-21T08:26:19.701Z,10
2022-10-21T08:27:19.841Z,7
2022-10-21T08:28:19.809Z,10
2022-10-21T08:29:19.775Z,11
2022-10-21T08:30:19.828Z,8
2022-10-21T08:31:19.761Z,9
2022-10-21T08:32:19.736Z,8
2022-10-21T08:33:19.735Z,7
2022-10-21T08:34:19.735Z,7
2022-10-21T08:35:19.791Z,10
2022-10-21T08:36:19.780Z,10
2022-10-21T08:37:24.770Z,10
2022-10-21T08:38:19.768Z,8
2022-10-21T08:39:19.698Z,7
2022-10-21T08:40:19.872Z,7
2022-10-21T08:41:19.798Z,8
2022-10-21T08:42:19.800Z,9
2022-10-21T08:43:19.832Z,8
2022-10-21T08:44:19.686Z,7
2022-10-21T08:45:19.758Z,8
2022-10-21T08:46:19.740Z,8
2022-10-21T08:47:19.822Z,8
2022-10-21T08:48:19.733Z,11
2022-10-21T08:49:23.169Z,10
2022-10-21T08:50:19.762Z,9
2022-10-21T08:51:19.772Z,9
2022-10-21T08:52:19.780Z,10
2022-10-21T08:53:19.685Z,10
2022-10-21T08:54:19.761Z,8
2022-10-21T08:55:19.771Z,7
2022-10-21T08:56:20.270Z,7
2022-10-21T08:57:19.787Z,8
2022-10-21T08:58:19.849Z,7
2022-10-21T08:59:19.851Z,7
2022-10-21T09:00:19.726Z,10
2022-10-21T09:01:19.768Z,9
2022-10-21T09:02:19.749Z,12
2022-10-21T09:03:19.862Z,7
2022-10-21T09:04:19.700Z,7
2022-10-21T09:05:19.733Z,13
2022-10-21T09:06:19.768Z,8
2022-10-21T09:07:19.721Z,13
2022-10-21T09:08:19.752Z,7
2022-10-21T09:09:19.864Z,9
2022-10-21T09:10:19.802Z,9
2022-10-21T09:11:19.818Z,8
2022-10-21T09:12:19.794Z,7
2022-10-21T09:13:19.784Z,8
2022-10-21T09:14:19.845Z,7
2022-10-21T09:15:19.728Z,9
2022-10-21T09:16:19.856Z,6
2022-10-21T09:17:19.698Z,6
2022-10-21T09:18:19.756Z,7
2022-10-21T09:19:19.728Z,10
2022-10-21T09:20:19.687Z,8
2022-10-21T09:21:19.752Z,8
2022-10-21T09:22:36.116Z,8
2022-10-21T09:23:20.107Z,6
2022-10-21T09:24:19.752Z,6
2022-10-21T09:25:19.804Z,6
2022-10-21T09:26:19.788Z,6
2022-10-21T09:27:26.956Z,7
2022-10-21T09:28:19.789Z,6
2022-10-21T09:29:19.779Z,5
2022-10-21T09:30:19.797Z,7
2022-10-21T09:31:19.724Z,8
2022-10-21T09:32:19.975Z,6
2022-10-21T09:33:19.736Z,6
2022-10-21T09:34:19.764Z,12
2022-10-21T09:35:19.730Z,9
2022-10-21T09:36:19.718Z,9
2022-10-21T09:37:19.931Z,11
2022-10-21T09:38:19.884Z,9
2022-10-21T09:39:19.753Z,11
2022-10-21T09:40:19.759Z,12
2022-10-21T09:41:19.782Z,7
2022-10-21T09:42:42.289Z,9
2022-10-21T09:43:19.822Z,11
2022-10-21T09:44:19.803Z,13
2022-10-21T09:45:19.730Z,11
2022-10-21T09:46:19.786Z,11
2022-10-21T09:47:19.802Z,8
2022-10-21T09:48:19.710Z,7
2022-10-21T09:50:19.815Z,9
2022-10-21T09:51:19.767Z,9
2022-10-21T09:52:19.734Z,9
2022-10-21T09:53:22.662Z,6
2022-10-21T09:54:19.749Z,8
2022-10-21T09:55:19.709Z,7
2022-10-21T09:56:19.865Z,9
2022-10-21T09:57:19.724Z,9
2022-10-21T09:58:19.807Z,8
2022-10-21T09:59:19.779Z,11
2022-10-21T10:00:19.732Z,7
2022-10-21T10:01:19.822Z,9
2022-10-21T10:02:19.914Z,7
2022-10-21T10:03:19.838Z,8
2022-10-21T10:04:19.810Z,7
2022-10-21T10:05:19.755Z,6
2022-10-21T10:06:19.781Z,6
2022-10-21T10:07:19.726Z,5
2022-10-21T10:08:19.741Z,6
2022-10-21T10:09:19.844Z,6
2022-10-21T10:10:19.790Z,8
2022-10-21T10:11:19.756Z,8
2022-10-21T10:12:19.759Z,7
2022-10-21T10:13:19.801Z,8
2022-10-21T10:14:19.787Z,11
2022-10-21T10:15:19.727Z,7
2022-10-21T10:16:19.825Z,10
2022-10-21T10:17:19.794Z,9
2022-10-21T10:18:19.820Z,10
2022-10-21T10:19:19.801Z,7
2022-10-21T10:20:19.830Z,6
2022-10-21T10:21:19.856Z,7
2022-10-21T10:22:19.891Z,8
2022-10-21T10:23:19.932Z,6
2022-10-21T10:24:19.830Z,8
2022-10-21T10:25:19.974Z,6
2022-10-21T10:26:20.084Z,7
2022-10-21T10:27:19.969Z,6
2022-10-21T10:28:19.953Z,7
2022-10-21T10:29:19.995Z,7
2022-10-21T10:30:20.065Z,6
2022-10-21T10:31:20.185Z,5
2022-10-21T10:32:19.750Z,6
2022-10-21T10:33:19.825Z,7
2022-10-21T10:34:19.702Z,6
2022-10-21T10:35:19.740Z,8
2022-10-21T10:36:19.833Z,7
2022-10-21T10:37:19.766Z,4
2022-10-21T10:38:19.769Z,8
2022-10-21T10:39:19.782Z,6
2022-10-21T10:40:19.844Z,6
2022-10-21T10:41:19.749Z,5
2022-10-21T10:42:19.865Z,6
2022-10-21T10:43:19.798Z,5
2022-10-21T10:44:19.754Z,6
2022-10-21T10:45:19.724Z,6
2022-10-21T10:46:19.847Z,7
2022-10-21T10:47:19.799Z,8
2022-10-21T10:48:19.783Z,5
2022-10-21T10:49:19.700Z,4
2022-10-21T10:50:19.835Z,5
2022-10-21T10:51:19.823Z,5
2022-10-21T10:52:19.808Z,8
2022-10-21T10:53:19.863Z,7
2022-10-21T10:54:19.760Z,5
2022-10-21T10:55:19.751Z,8
2022-10-21T10:56:19.875Z,8
2022-10-21T10:57:19.738Z,7
2022-10-21T10:58:21.874Z,5
2022-10-21T10:59:19.708Z,5
2022-10-21T11:00:19.761Z,5
2022-10-21T11:01:19.938Z,6
2022-10-21T11:02:19.808Z,7
2022-10-21T11:03:23.925Z,6
2022-10-21T11:04:19.710Z,7
2022-10-21T11:05:19.725Z,6
2022-10-21T11:06:19.764Z,6
2022-10-21T11:07:19.842Z,5
2022-10-21T11:08:19.712Z,6
2022-10-21T11:09:22.617Z,4
2022-10-21T11:10:19.760Z,6
2022-10-21T11:11:19.792Z,5
2022-10-21T11:12:19.741Z,8
2022-10-21T11:13:19.756Z,5
2022-10-21T11:14:22.530Z,7
2022-10-21T11:15:19.753Z,5
2022-10-21T11:16:19.766Z,6
2022-10-21T11:17:19.796Z,5
2022-10-21T11:18:24.528Z,5
2022-10-21T11:19:19.780Z,5
2022-10-21T11:20:19.786Z,4
2022-10-21T11:21:19.799Z,4
2022-10-21T11:22:19.795Z,7
2022-10-21T11:23:19.840Z,6
2022-10-21T11:24:19.717Z,6
2022-10-21T11:25:19.697Z,6
2022-10-21T11:26:19.887Z,6
2022-10-21T11:27:19.947Z,5
2022-10-21T11:28:19.737Z,10
2022-10-21T11:29:19.738Z,7
2022-10-21T11:30:19.844Z,5
2022-10-21T11:31:19.770Z,4
2022-10-21T11:32:19.760Z,5
2022-10-21T11:33:19.762Z,5
2022-10-21T11:34:19.766Z,6
2022-10-21T11:35:19.798Z,4
2022-10-21T11:36:19.727Z,6
2022-10-21T11:37:19.713Z,3
2022-10-21T11:38:19.755Z,5
2022-10-21T11:39:21.603Z,4
2022-10-21T11:40:19.810Z,4
2022-10-21T11:41:21.785Z,3
2022-10-21T11:42:19.820Z,8
2022-10-21T11:43:19.869Z,4
2022-10-21T11:44:19.708Z,5
2022-10-21T11:45:19.738Z,4
2022-10-21T11:46:19.871Z,5
2022-10-21T11:47:19.752Z,6
2022-10-21T11:48:19.751Z,3
2022-10-21T11:49:19.800Z,6
2022-10-21T11:51:19.752Z,4
2022-10-21T11:52:19.728Z,4
2022-10-21T11:53:19.790Z,3
2022-10-21T11:54:19.808Z,4
2022-10-21T11:55:19.841Z,4
2022-10-21T11:56:19.830Z,4
2022-10-21T11:57:19.839Z,4
2022-10-21T11:58:20.024Z,4
2022-10-21T11:59:19.752Z,5
2022-10-21T12:00:19.714Z,4
2022-10-21T12:01:19.747Z,4
2022-10-21T12:02:19.838Z,5
2022-10-21T12:03:19.720Z,4
2022-10-21T12:04:19.712Z,8
2022-10-21T12:05:19.768Z,3
2022-10-21T12:06:19.791Z,6
2022-10-21T12:07:19.826Z,6
2022-10-21T12:08:19.983Z,7
2022-10-21T12:09:19.798Z,4
2022-10-21T12:10:19.831Z,4
2022-10-21T12:11:19.842Z,4
2022-10-21T12:12:19.828Z,4
2022-10-21T12:13:19.771Z,4
2022-10-21T12:14:19.790Z,6
2022-10-21T12:15:19.718Z,4
2022-10-21T12:16:19.859Z,3
2022-10-21T12:17:19.710Z,3
2022-10-21T12:18:19.752Z,3
2022-10-21T12:19:19.766Z,3
2022-10-21T12:20:22.958Z,4
2022-10-21T12:21:19.892Z,4
2022-10-21T12:22:19.813Z,5
2022-10-21T12:23:19.825Z,4
2022-10-21T12:24:19.737Z,2
2022-10-21T12:25:19.716Z,2
2022-10-21T12:26:19.819Z,6
2022-10-21T12:27:19.843Z,2
2022-10-21T12:28:19.811Z,3
2022-10-21T12:29:19.931Z,4
2022-10-21T12:30:23.405Z,3
2022-10-21T12:31:19.737Z,4
2022-10-21T12:32:19.728Z,2
2022-10-21T12:33:19.739Z,4
2022-10-21T12:34:19.720Z,3
2022-10-21T12:35:19.712Z,3
2022-10-21T12:36:19.776Z,3
2022-10-21T12:37:19.866Z,3
2022-10-21T12:38:19.776Z,6
2022-10-21T12:39:19.822Z,3
2022-10-21T12:40:19.787Z,2
2022-10-21T12:41:19.808Z,3
2022-10-21T12:42:19.799Z,3
2022-10-21T12:43:19.825Z,5
2022-10-21T12:44:19.775Z,3
2022-10-21T12:45:19.807Z,3
2022-10-21T12:46:19.838Z,4
2022-10-21T12:47:19.831Z,3
2022-10-21T12:48:19.738Z,2
2022-10-21T12:49:19.801Z,4
2022-10-21T12:50:19.721Z,2
2022-10-21T12:51:19.781Z,4
2022-10-21T12:52:19.870Z,4
2022-10-21T12:53:19.875Z,2
2022-10-21T12:54:19.796Z,1
2022-10-21T12:55:19.851Z,4
2022-10-21T12:56:19.806Z,2
2022-10-21T12:57:19.788Z,3
2022-10-21T12:58:19.718Z,1
2022-10-21T12:59:19.754Z,3
2022-10-21T13:00:19.911Z,3
2022-10-21T13:01:19.900Z,3
2022-10-21T13:02:19.717Z,3
2022-10-21T13:03:19.829Z,2
2022-10-21T13:04:19.746Z,4
2022-10-21T13:05:19.748Z,5
2022-10-21T13:06:19.764Z,3
2022-10-21T13:07:19.926Z,4
2022-10-21T13:08:19.888Z,2
2022-10-21T13:09:19.822Z,5
2022-10-21T13:10:19.770Z,2
2022-10-21T13:11:19.747Z,5
2022-10-21T13:12:19.729Z,3
2022-10-21T13:13:19.723Z,2
2022-10-21T13:14:19.770Z,6
2022-10-21T13:15:19.819Z,3
2022-10-21T13:16:19.848Z,3
2022-10-21T13:17:19.911Z,4
2022-10-21T13:18:19.808Z,4
2022-10-21T13:19:19.723Z,2
2022-10-21T13:20:19.727Z,3
2022-10-21T13:21:21.331Z,4
2022-10-21T13:22:19.803Z,2
2022-10-21T13:23:19.882Z,3
2022-10-21T13:24:19.857Z,3
2022-10-21T13:25:19.751Z,1
2022-10-21T13:26:19.748Z,4
2022-10-21T13:27:19.796Z,4
2022-10-21T13:28:19.798Z,5
2022-10-21T13:29:19.790Z,3
2022-10-21T13:30:19.829Z,5
2022-10-21T13:31:19.918Z,4
2022-10-21T13:32:19.821Z,3
2022-10-21T13:33:19.859Z,4
2022-10-21T13:34:19.751Z,2
2022-10-21T13:35:19.725Z,3
2022-10-21T13:36:19.757Z,3
2022-10-21T13:37:19.759Z,3
2022-10-21T13:38:19.823Z,5
2022-10-21T13:39:20.125Z,6
2022-10-21T13:40:19.989Z,6
2022-10-21T13:41:19.815Z,6
2022-10-21T13:42:22.857Z,6
2022-10-21T13:43:19.833Z,3
2022-10-21T13:44:19.752Z,3
2022-10-21T13:45:19.737Z,2
2022-10-21T13:46:19.832Z,2
2022-10-21T13:47:19.849Z,3
2022-10-21T13:48:19.735Z,1
2022-10-21T13:49:19.821Z,3
2022-10-21T13:50:19.761Z,4
2022-10-21T13:51:19.753Z,2
2022-10-21T13:52:19.853Z,5
2022-10-21T13:53:19.885Z,2
2022-10-21T13:54:19.793Z,3
2022-10-21T13:55:19.774Z,4
2022-10-21T13:56:19.756Z,2
2022-10-21T13:57:19.791Z,2
2022-10-21T13:58:19.744Z,4
2022-10-21T13:59:19.768Z,4
2022-10-21T14:00:19.814Z,2
2022-10-21T14:01:19.848Z,4
2022-10-21T14:02:19.832Z,4
2022-10-21T14:03:19.821Z,3
2022-10-21T14:04:19.827Z,2
2022-10-21T14:05:19.760Z,6
2022-10-21T14:06:19.840Z,5
2022-10-21T14:07:19.841Z,2
2022-10-21T14:08:19.849Z,3
2022-10-21T14:09:19.920Z,3
2022-10-21T14:10:19.861Z,4
2022-10-21T14:11:19.804Z,2
2022-10-21T14:12:19.770Z,4
2022-10-21T14:13:19.808Z,1
2022-10-21T14:14:19.815Z,3
2022-10-21T14:15:19.797Z,1
2022-10-21T14:16:19.755Z,3
2022-10-21T14:17:19.796Z,3
2022-10-21T14:18:20.960Z,6
2022-10-21T14:19:19.814Z,4
2022-10-21T14:20:19.959Z,4
2022-10-21T14:21:20.139Z,2
2022-10-21T14:22:20.119Z,3
2022-10-21T14:23:20.140Z,2
2022-10-21T14:24:19.728Z,4
2022-10-21T14:25:19.799Z,4
2022-10-21T14:26:19.844Z,3
2022-10-21T14:27:19.778Z,2
2022-10-21T14:28:19.744Z,4
2022-10-21T14:29:19.756Z,2
2022-10-21T14:30:19.795Z,2
2022-10-21T14:31:19.765Z,2
2022-10-21T14:32:19.764Z,6
2022-10-21T14:33:19.822Z,3
2022-10-21T14:34:19.851Z,4
2022-10-21T14:35:19.751Z,4
2022-10-21T14:36:19.766Z,4
2022-10-21T14:37:19.794Z,2
2022-10-21T14:38:19.760Z,3
2022-10-21T14:39:19.832Z,4